This is the latest recevied weather packets stored in our database for station/object KG4GJX. If no packets are shown the sender has not sent any weather packets the latest 1 day(s).
| Time | Temp. | Humidity | Pressure | Rain* | Wind** | Luminosity | Snow |
|---|---|---|---|---|---|---|---|
| 1778089555 | 21.11° C | 100% | 1013.2 hPa | 0 mm | - | - | - |
| 1778088893 | 21.11° C | 99% | 1012.8 hPa | 0 mm | - | - | - |
| 1778087568 | 21.11° C | 100% | 1012.8 hPa | 0 mm | - | - | - |
| 1778085581 | 20.56° C | 100% | 1012.1 hPa | 0 mm | - | - | - |
| 1778084919 | 20° C | 100% | 1012.1 hPa | 0 mm | - | - | - |
| 1778083594 | 19.44° C | 100% | 1012.1 hPa | 0.25 mm | - | - | - |
| 1778082270 | 18.33° C | 100% | 1012.5 hPa | 1.52 mm | - | - | - |
| 1778080282 | 17.22° C | 100% | 1012.5 hPa | 4.57 mm | - | - | - |
| 1778078957 | 17.22° C | 100% | 1014.2 hPa | 5.84 mm | - | - | - |
| 1778071008 | 18.33° C | 99% | 1012.5 hPa | 0.51 mm | - | - | - |
| 1778070346 | 18.33° C | 97% | 1012.1 hPa | 0.25 mm | - | - | - |
| 1778069021 | 18.89° C | 94% | 1012.1 hPa | 0 mm | - | - | - |
| 1778065047 | 19.44° C | 83% | 1011.1 hPa | 0 mm | - | - | - |
| 1778062397 | 20° C | 79% | 1011.1 hPa | 0 mm | - | - | - |
| 1778060410 | 20° C | 76% | 1010.1 hPa | 0 mm | - | - | - |
| 1778059085 | 20° C | 74% | 1010.1 hPa | 0 mm | - | - | - |
| 1778057098 | 20° C | 71% | 1010.4 hPa | 0 mm | - | - | - |
| 1778055773 | 20.56° C | 70% | 1010.1 hPa | 0 mm | - | - | - |
| 1778055110 | 20.56° C | 69% | 1010.1 hPa | 0 mm | - | - | - |
| 1778053123 | 20.56° C | 66% | 1010.1 hPa | 0 mm | - | - | - |
| 1778052461 | 20.56° C | 65% | 1010.1 hPa | 0 mm | - | - | - |
| 1778051798 | 21.11° C | 64% | 1010.1 hPa | 0 mm | - | - | - |
| 1778051136 | 21.11° C | 63% | 1010.4 hPa | 0 mm | - | - | - |
| 1778050473 | 21.11° C | 62% | 1010.4 hPa | 0 mm | - | - | - |
| 1778049811 | 21.11° C | 61% | 1010.4 hPa | 0 mm | - | - | - |
* Rain latest hour (hover to see other rain measurements)
** Current wind speed in m/s (hover to see current wind gust speed)